Aeroporto :
LOGIN :

Iscrizione | Disclaimer

   EN    FR    IT 

 










Sommario :    VFR   VFR Marginale   IFR   IFR Intensivo   IFR Molto Intensivo
Visibilità : 
Base nubi : 
>= 8 km
>= 3000ft
5 / 8 km
1000 / 3000 ft
1500m / 5 km
500 / 1000 ft
800 / 1500m
200 / 500 ft
< 800m
< 200 ft
Simboli :   Temporali  Nebbia  Neve Forte  Precipitazioni Forti  Vento > 20 kt
SIGMETs :   Varie  Temporali  Ghiacco  Turbolenza  Onda orograficha  Ceneri Vulcaniche






- Altitudine del aeroporto : 464 ft
- Codice IATA : EVX


LFOE - Evreux

ULTIMO METAR :
  • 131500Z AUTO 22011KT 9999 FEW015 BKN028 BKN034 08/05 Q1002 NOSIG

METARs OBSOLETI :
  • 131430Z AUTO 23007KT 200V260 9999 FEW023 BKN028 BKN034 09/05 Q1002 NOSIG
  • 131400Z AUTO 23010KT 9999 FEW025 SCT047 BKN060 10/05 Q1002 TEMPO SCT010 BKN030TCU
  • 131330Z AUTO 21010KT 170V240 9999 BKN021 BKN027 BKN041 09/05 Q1002 TEMPO SCT010 BKN030TCU
  • 131300Z AUTO 22009KT 9999 FEW018 SCT024 BKN230 10/06 Q1003 TEMPO SCT010 BKN030TCU
  • 131230Z AUTO 24007KT 9999 FEW018 BKN045 BKN062 09/06 Q1003 TEMPO SCT010 BKN030TCU BECMG 18010G20KT

TAF TAF LFOE
Valido dal 13 a 15 ore il 14 a 15 ore UTC


131400Z 1315/1415 23010KT 9999 SCT025 BKN055
BECMG 1315/1317 18010G20KT
TEMPO 1321/1401 16015G25KT 4000 -RA BKN008 OVC015
PROB40
TEMPO 1321/1402 16020G30KT
BECMG 1403/1405 20010KT BKN008
BECMG 1410/1413 SCT020



MetMap, La meteo Aeronautica in un colpo d'occhio ! - Copyright ORBIFLY Dicembre 2007 - Disclaimer

ORBIFLY MET'MAP TEAM :

Programmazione e sviluppo : Alexandra Zaïnal
Concezione e sviluppo : Baudouin d'Aumeries
Co-Programmazione e sviluppo : Marc-Olivier Méhu
Supporto tecnico e logistico : Manuel Goepfert
Aiuto per la traduzione : Arnaldo La Scala

Contatto : metmap@orbifly.com




FONTI E CREDITI :

   NOAA